sensor_id;sensor_type;location;lat;lon;timestamp;P1;durP1;ratioP1;P2;durP2;ratioP2
66663;SDS011;59683;51.428;-1.994;2023-04-03T07:45:49;10.55;;;2.45;;
66663;SDS011;59683;51.428;-1.994;2023-04-03T07:48:16;10.27;;;2.00;;
66663;SDS011;59683;51.428;-1.994;2023-04-03T07:50:44;8.80;;;1.97;;
66663;SDS011;59683;51.428;-1.994;2023-04-03T07:53:09;11.63;;;2.47;;
66663;SDS011;59683;51.428;-1.994;2023-04-03T07:55:35;10.20;;;1.73;;
66663;SDS011;59683;51.428;-1.994;2023-04-03T07:58:12;10.27;;;1.87;;
66663;SDS011;59683;51.428;-1.994;2023-04-03T08:00:40;9.30;;;1.43;;
66663;SDS011;59683;51.428;-1.994;2023-04-03T08:03:06;7.23;;;1.60;;
66663;SDS011;59683;51.428;-1.994;2023-04-03T08:05:35;8.47;;;1.70;;
66663;SDS011;59683;51.428;-1.994;2023-04-03T08:08:01;10.48;;;2.03;;
66663;SDS011;59683;51.428;-1.994;2023-04-03T08:10:29;5.60;;;1.60;;
66663;SDS011;59683;51.428;-1.994;2023-04-03T08:12:55;8.53;;;1.77;;
66663;SDS011;59683;51.428;-1.994;2023-04-03T08:15:20;8.30;;;2.17;;
66663;SDS011;59683;51.428;-1.994;2023-04-03T08:17:46;8.63;;;2.00;;
66663;SDS011;59683;51.428;-1.994;2023-04-03T08:20:11;9.13;;;1.33;;
66663;SDS011;59683;51.428;-1.994;2023-04-03T08:22:36;7.97;;;2.17;;
66663;SDS011;59683;51.428;-1.994;2023-04-03T08:25:02;5.33;;;1.37;;
66663;SDS011;59683;51.428;-1.994;2023-04-03T08:27:28;7.27;;;1.27;;
66663;SDS011;59683;51.428;-1.994;2023-04-03T08:29:54;8.00;;;1.30;;
66663;SDS011;59683;51.428;-1.994;2023-04-03T08:32:20;5.07;;;1.00;;
66663;SDS011;59683;51.428;-1.994;2023-04-03T08:34:45;4.87;;;1.03;;
66663;SDS011;59683;51.428;-1.994;2023-04-03T08:37:11;5.27;;;1.20;;
66663;SDS011;59683;51.428;-1.994;2023-04-03T08:39:36;6.93;;;1.30;;
66663;SDS011;59683;51.428;-1.994;2023-04-03T08:42:03;7.87;;;1.33;;
66663;SDS011;59683;51.428;-1.994;2023-04-03T08:44:41;6.87;;;1.70;;
66663;SDS011;59683;51.428;-1.994;2023-04-03T08:47:24;6.13;;;1.30;;
66663;SDS011;59683;51.428;-1.994;2023-04-03T08:50:00;9.60;;;2.07;;
66663;SDS011;59683;51.428;-1.994;2023-04-03T08:52:33;4.40;;;1.20;;
66663;SDS011;59683;51.428;-1.994;2023-04-03T08:55:01;8.53;;;1.50;;
66663;SDS011;59683;51.428;-1.994;2023-04-03T08:57:34;5.07;;;1.30;;
66663;SDS011;59683;51.428;-1.994;2023-04-03T09:00:13;6.07;;;1.80;;
66663;SDS011;59683;51.428;-1.994;2023-04-03T09:02:44;5.78;;;1.25;;
66663;SDS011;59683;51.428;-1.994;2023-04-03T09:05:16;5.17;;;1.30;;
66663;SDS011;59683;51.428;-1.994;2023-04-03T09:07:57;8.90;;;2.03;;
66663;SDS011;59683;51.428;-1.994;2023-04-03T09:10:30;8.27;;;1.57;;
66663;SDS011;59683;51.428;-1.994;2023-04-03T09:16:54;9.07;;;1.77;;
66663;SDS011;59683;51.428;-1.994;2023-04-03T09:21:56;6.77;;;2.00;;
66663;SDS011;59683;51.428;-1.994;2023-04-03T09:24:23;6.67;;;1.80;;
66663;SDS011;59683;51.428;-1.994;2023-04-03T09:26:59;6.33;;;1.90;;
66663;SDS011;59683;51.428;-1.994;2023-04-03T09:29:29;6.13;;;2.20;;
66663;SDS011;59683;51.428;-1.994;2023-04-03T09:32:02;5.10;;;1.80;;
66663;SDS011;59683;51.428;-1.994;2023-04-03T09:34:37;11.33;;;1.53;;
66663;SDS011;59683;51.428;-1.994;2023-04-03T09:37:06;7.47;;;2.20;;
66663;SDS011;59683;51.428;-1.994;2023-04-03T09:39:48;5.97;;;2.50;;
66663;SDS011;59683;51.428;-1.994;2023-04-03T09:42:24;6.30;;;2.17;;
66663;SDS011;59683;51.428;-1.994;2023-04-03T09:44:56;7.47;;;2.47;;
66663;SDS011;59683;51.428;-1.994;2023-04-03T09:47:32;8.20;;;2.40;;
66663;SDS011;59683;51.428;-1.994;2023-04-03T09:52:38;9.50;;;2.33;;
66663;SDS011;59683;51.428;-1.994;2023-04-03T09:55:14;9.53;;;2.10;;
66663;SDS011;59683;51.428;-1.994;2023-04-03T09:57:44;5.90;;;2.43;;
66663;SDS011;59683;51.428;-1.994;2023-04-03T10:00:57;8.87;;;2.87;;
66663;SDS011;59683;51.428;-1.994;2023-04-03T10:02:59;6.70;;;2.43;;
66663;SDS011;59683;51.428;-1.994;2023-04-03T10:05:26;8.00;;;2.50;;
66663;SDS011;59683;51.428;-1.994;2023-04-03T10:10:33;7.13;;;2.33;;
66663;SDS011;59683;51.428;-1.994;2023-04-03T10:13:12;5.90;;;1.90;;
66663;SDS011;59683;51.428;-1.994;2023-04-03T10:15:46;9.02;;;2.60;;
66663;SDS011;59683;51.428;-1.994;2023-04-03T10:24:08;6.50;;;2.90;;
66663;SDS011;59683;51.428;-1.994;2023-04-03T10:34:44;7.03;;;2.03;;
66663;SDS011;59683;51.428;-1.994;2023-04-03T10:37:30;6.13;;;2.20;;
66663;SDS011;59683;51.428;-1.994;2023-04-03T10:43:04;7.97;;;3.00;;
66663;SDS011;59683;51.428;-1.994;2023-04-03T10:51:21;6.17;;;2.00;;
66663;SDS011;59683;51.428;-1.994;2023-04-03T11:04:44;4.63;;;2.17;;
66663;SDS011;59683;51.428;-1.994;2023-04-03T11:07:26;6.57;;;2.27;;
66663;SDS011;59683;51.428;-1.994;2023-04-03T11:09:57;8.52;;;3.38;;
66663;SDS011;59683;51.428;-1.994;2023-04-03T11:12:44;7.73;;;2.57;;
66663;SDS011;59683;51.428;-1.994;2023-04-03T11:15:17;7.60;;;2.30;;
66663;SDS011;59683;51.428;-1.994;2023-04-03T11:20:37;10.87;;;3.17;;
66663;SDS011;59683;51.428;-1.994;2023-04-03T11:23:24;6.57;;;2.38;;
66663;SDS011;59683;51.428;-1.994;2023-04-03T11:25:53;5.87;;;2.70;;
66663;SDS011;59683;51.428;-1.994;2023-04-03T11:28:31;8.67;;;2.97;;
66663;SDS011;59683;51.428;-1.994;2023-04-03T11:36:45;9.43;;;2.60;;
66663;SDS011;59683;51.428;-1.994;2023-04-03T11:41:49;6.50;;;2.30;;
66663;SDS011;59683;51.428;-1.994;2023-04-03T11:44:29;9.13;;;2.63;;
66663;SDS011;59683;51.428;-1.994;2023-04-03T11:47:03;5.23;;;2.23;;
66663;SDS011;59683;51.428;-1.994;2023-04-03T12:26:25;7.37;;;2.50;;
66663;SDS011;59683;51.428;-1.994;2023-04-03T12:28:52;8.20;;;2.47;;
66663;SDS011;59683;51.428;-1.994;2023-04-03T12:31:19;5.80;;;2.38;;
66663;SDS011;59683;51.428;-1.994;2023-04-03T12:36:57;7.15;;;2.72;;
66663;SDS011;59683;51.428;-1.994;2023-04-03T12:42:21;6.47;;;2.27;;
66663;SDS011;59683;51.428;-1.994;2023-04-03T12:47:30;6.77;;;2.47;;
66663;SDS011;59683;51.428;-1.994;2023-04-03T12:50:01;6.17;;;2.23;;
66663;SDS011;59683;51.428;-1.994;2023-04-03T12:52:44;7.38;;;2.78;;
66663;SDS011;59683;51.428;-1.994;2023-04-03T12:55:14;7.17;;;2.57;;
66663;SDS011;59683;51.428;-1.994;2023-04-03T12:57:41;5.77;;;2.47;;
66663;SDS011;59683;51.428;-1.994;2023-04-03T13:00:20;6.27;;;2.57;;
66663;SDS011;59683;51.428;-1.994;2023-04-03T13:02:46;6.68;;;2.15;;
66663;SDS011;59683;51.428;-1.994;2023-04-03T13:05:16;6.00;;;2.43;;
66663;SDS011;59683;51.428;-1.994;2023-04-03T13:07:43;10.03;;;2.80;;
66663;SDS011;59683;51.428;-1.994;2023-04-03T13:10:14;7.60;;;2.85;;
